sensor_id;sensor_type;location;lat;lon;timestamp;P1;durP1;ratioP1;P2;durP2;ratioP2
16181;SDS011;8197;51.664;7.114;2023-12-20T00:01:33;29.43;;;12.30;;
16181;SDS011;8197;51.664;7.114;2023-12-20T00:06:36;28.17;;;11.87;;
16181;SDS011;8197;51.664;7.114;2023-12-20T00:11:39;27.53;;;12.17;;
16181;SDS011;8197;51.664;7.114;2023-12-20T00:16:44;27.57;;;11.40;;
16181;SDS011;8197;51.664;7.114;2023-12-20T00:21:47;24.10;;;10.20;;
16181;SDS011;8197;51.664;7.114;2023-12-20T00:26:50;28.33;;;10.17;;
16181;SDS011;8197;51.664;7.114;2023-12-20T00:31:54;26.90;;;8.20;;
16181;SDS011;8197;51.664;7.114;2023-12-20T00:36:57;30.80;;;8.77;;
16181;SDS011;8197;51.664;7.114;2023-12-20T00:42:00;26.63;;;7.60;;
16181;SDS011;8197;51.664;7.114;2023-12-20T00:47:05;25.70;;;7.77;;
16181;SDS011;8197;51.664;7.114;2023-12-20T00:52:08;23.17;;;6.53;;
16181;SDS011;8197;51.664;7.114;2023-12-20T00:57:11;24.63;;;5.43;;
16181;SDS011;8197;51.664;7.114;2023-12-20T01:02:15;20.77;;;5.23;;
16181;SDS011;8197;51.664;7.114;2023-12-20T01:07:18;21.70;;;5.43;;
16181;SDS011;8197;51.664;7.114;2023-12-20T01:12:21;25.17;;;5.50;;
16181;SDS011;8197;51.664;7.114;2023-12-20T01:17:25;21.50;;;4.80;;
16181;SDS011;8197;51.664;7.114;2023-12-20T01:22:28;26.20;;;5.93;;
16181;SDS011;8197;51.664;7.114;2023-12-20T01:27:31;22.77;;;4.90;;
16181;SDS011;8197;51.664;7.114;2023-12-20T01:32:35;22.83;;;4.40;;
16181;SDS011;8197;51.664;7.114;2023-12-20T01:37:38;25.40;;;5.00;;
16181;SDS011;8197;51.664;7.114;2023-12-20T01:42:41;22.23;;;4.60;;
16181;SDS011;8197;51.664;7.114;2023-12-20T01:47:45;28.63;;;4.63;;
16181;SDS011;8197;51.664;7.114;2023-12-20T01:52:49;21.07;;;4.47;;
16181;SDS011;8197;51.664;7.114;2023-12-20T01:57:53;22.67;;;5.17;;
16181;SDS011;8197;51.664;7.114;2023-12-20T02:02:57;22.13;;;4.77;;
16181;SDS011;8197;51.664;7.114;2023-12-20T02:08:03;27.17;;;5.33;;
16181;SDS011;8197;51.664;7.114;2023-12-20T02:13:07;21.13;;;4.27;;
16181;SDS011;8197;51.664;7.114;2023-12-20T02:18:11;21.23;;;4.37;;
16181;SDS011;8197;51.664;7.114;2023-12-20T02:23:18;22.53;;;4.60;;
16181;SDS011;8197;51.664;7.114;2023-12-20T02:28:21;21.37;;;3.90;;
16181;SDS011;8197;51.664;7.114;2023-12-20T02:33:24;26.43;;;5.40;;
16181;SDS011;8197;51.664;7.114;2023-12-20T02:38:29;24.60;;;4.60;;
16181;SDS011;8197;51.664;7.114;2023-12-20T02:43:32;26.40;;;5.30;;
16181;SDS011;8197;51.664;7.114;2023-12-20T02:48:35;25.53;;;4.77;;
16181;SDS011;8197;51.664;7.114;2023-12-20T02:53:40;24.93;;;4.80;;
16181;SDS011;8197;51.664;7.114;2023-12-20T02:58:42;27.33;;;4.47;;
16181;SDS011;8197;51.664;7.114;2023-12-20T03:03:45;23.57;;;4.30;;
16181;SDS011;8197;51.664;7.114;2023-12-20T03:08:52;26.20;;;5.00;;
16181;SDS011;8197;51.664;7.114;2023-12-20T03:13:55;24.30;;;5.10;;
16181;SDS011;8197;51.664;7.114;2023-12-20T03:18:59;26.20;;;5.80;;
16181;SDS011;8197;51.664;7.114;2023-12-20T03:24:03;27.90;;;5.50;;
16181;SDS011;8197;51.664;7.114;2023-12-20T03:29:07;38.30;;;5.90;;
16181;SDS011;8197;51.664;7.114;2023-12-20T03:34:10;23.00;;;5.30;;
16181;SDS011;8197;51.664;7.114;2023-12-20T03:39:14;21.50;;;5.37;;
16181;SDS011;8197;51.664;7.114;2023-12-20T03:44:17;31.07;;;5.27;;
16181;SDS011;8197;51.664;7.114;2023-12-20T03:49:20;23.40;;;4.63;;
16181;SDS011;8197;51.664;7.114;2023-12-20T03:54:24;26.17;;;4.93;;
16181;SDS011;8197;51.664;7.114;2023-12-20T03:59:27;26.70;;;4.73;;
16181;SDS011;8197;51.664;7.114;2023-12-20T04:04:30;27.77;;;4.87;;
16181;SDS011;8197;51.664;7.114;2023-12-20T04:09:34;32.97;;;5.70;;
16181;SDS011;8197;51.664;7.114;2023-12-20T04:14:37;32.30;;;4.73;;
16181;SDS011;8197;51.664;7.114;2023-12-20T04:19:42;29.37;;;4.37;;
16181;SDS011;8197;51.664;7.114;2023-12-20T04:24:46;23.03;;;4.37;;
16181;SDS011;8197;51.664;7.114;2023-12-20T04:29:49;31.97;;;4.40;;
16181;SDS011;8197;51.664;7.114;2023-12-20T04:34:52;25.70;;;4.77;;
16181;SDS011;8197;51.664;7.114;2023-12-20T04:39:56;25.60;;;4.13;;
16181;SDS011;8197;51.664;7.114;2023-12-20T04:45:00;23.83;;;3.90;;
16181;SDS011;8197;51.664;7.114;2023-12-20T04:50:03;29.23;;;3.60;;
16181;SDS011;8197;51.664;7.114;2023-12-20T04:55:08;24.60;;;3.90;;
16181;SDS011;8197;51.664;7.114;2023-12-20T05:00:11;30.00;;;4.53;;
16181;SDS011;8197;51.664;7.114;2023-12-20T05:05:16;31.30;;;3.40;;
16181;SDS011;8197;51.664;7.114;2023-12-20T05:10:21;26.97;;;3.30;;
16181;SDS011;8197;51.664;7.114;2023-12-20T05:15:24;22.80;;;2.80;;
16181;SDS011;8197;51.664;7.114;2023-12-20T05:20:27;26.03;;;3.63;;
16181;SDS011;8197;51.664;7.114;2023-12-20T05:25:31;25.47;;;3.63;;
16181;SDS011;8197;51.664;7.114;2023-12-20T05:30:34;29.40;;;3.60;;
16181;SDS011;8197;51.664;7.114;2023-12-20T05:35:37;24.20;;;3.77;;
16181;SDS011;8197;51.664;7.114;2023-12-20T05:40:41;30.20;;;3.70;;
16181;SDS011;8197;51.664;7.114;2023-12-20T05:45:44;24.40;;;3.70;;
16181;SDS011;8197;51.664;7.114;2023-12-20T05:50:47;32.47;;;3.77;;
16181;SDS011;8197;51.664;7.114;2023-12-20T05:55:52;29.70;;;3.30;;
16181;SDS011;8197;51.664;7.114;2023-12-20T06:00:55;34.53;;;4.23;;
16181;SDS011;8197;51.664;7.114;2023-12-20T06:05:58;26.40;;;3.70;;
16181;SDS011;8197;51.664;7.114;2023-12-20T06:11:17;28.53;;;4.40;;
16181;SDS011;8197;51.664;7.114;2023-12-20T06:16:20;33.60;;;5.33;;
16181;SDS011;8197;51.664;7.114;2023-12-20T06:21:23;30.17;;;5.07;;
16181;SDS011;8197;51.664;7.114;2023-12-20T06:26:27;31.27;;;4.83;;
16181;SDS011;8197;51.664;7.114;2023-12-20T06:31:30;30.90;;;4.33;;
16181;SDS011;8197;51.664;7.114;2023-12-20T06:36:34;37.60;;;4.03;;
16181;SDS011;8197;51.664;7.114;2023-12-20T06:41:38;26.90;;;5.13;;
16181;SDS011;8197;51.664;7.114;2023-12-20T06:46:41;37.20;;;4.50;;
16181;SDS011;8197;51.664;7.114;2023-12-20T06:51:45;33.37;;;4.43;;
16181;SDS011;8197;51.664;7.114;2023-12-20T06:56:52;35.43;;;4.40;;
16181;SDS011;8197;51.664;7.114;2023-12-20T07:01:55;24.30;;;4.10;;
16181;SDS011;8197;51.664;7.114;2023-12-20T07:06:58;31.50;;;4.50;;
16181;SDS011;8197;51.664;7.114;2023-12-20T07:12:03;34.87;;;4.97;;
16181;SDS011;8197;51.664;7.114;2023-12-20T07:17:06;30.40;;;4.50;;
16181;SDS011;8197;51.664;7.114;2023-12-20T07:22:14;33.40;;;5.17;;
16181;SDS011;8197;51.664;7.114;2023-12-20T07:27:18;36.53;;;5.00;;
16181;SDS011;8197;51.664;7.114;2023-12-20T07:32:21;41.47;;;6.10;;
16181;SDS011;8197;51.664;7.114;2023-12-20T07:37:24;23.50;;;4.10;;
16181;SDS011;8197;51.664;7.114;2023-12-20T07:42:28;32.80;;;4.50;;
16181;SDS011;8197;51.664;7.114;2023-12-20T07:47:31;30.60;;;5.03;;
16181;SDS011;8197;51.664;7.114;2023-12-20T07:52:34;29.87;;;4.50;;
16181;SDS011;8197;51.664;7.114;2023-12-20T07:57:39;32.57;;;3.93;;
16181;SDS011;8197;51.664;7.114;2023-12-20T08:02:42;26.00;;;3.93;;
16181;SDS011;8197;51.664;7.114;2023-12-20T08:07:45;35.00;;;4.37;;
16181;SDS011;8197;51.664;7.114;2023-12-20T08:12:49;29.43;;;4.30;;
16181;SDS011;8197;51.664;7.114;2023-12-20T08:17:52;27.60;;;4.23;;
16181;SDS011;8197;51.664;7.114;2023-12-20T08:22:55;25.10;;;4.07;;
16181;SDS011;8197;51.664;7.114;2023-12-20T08:28:03;35.33;;;5.40;;
16181;SDS011;8197;51.664;7.114;2023-12-20T08:33:06;34.03;;;4.10;;
16181;SDS011;8197;51.664;7.114;2023-12-20T08:38:12;24.33;;;4.33;;
16181;SDS011;8197;51.664;7.114;2023-12-20T08:43:17;31.40;;;3.97;;
16181;SDS011;8197;51.664;7.114;2023-12-20T08:48:20;29.07;;;5.27;;
16181;SDS011;8197;51.664;7.114;2023-12-20T08:53:23;27.17;;;4.53;;
16181;SDS011;8197;51.664;7.114;2023-12-20T08:58:27;33.77;;;3.33;;
16181;SDS011;8197;51.664;7.114;2023-12-20T09:03:30;23.13;;;3.50;;
16181;SDS011;8197;51.664;7.114;2023-12-20T09:08:33;25.83;;;4.13;;
16181;SDS011;8197;51.664;7.114;2023-12-20T09:13:38;29.73;;;3.23;;
16181;SDS011;8197;51.664;7.114;2023-12-20T09:18:42;35.70;;;4.57;;
16181;SDS011;8197;51.664;7.114;2023-12-20T09:23:45;30.70;;;4.03;;
16181;SDS011;8197;51.664;7.114;2023-12-20T09:28:50;29.20;;;4.10;;
16181;SDS011;8197;51.664;7.114;2023-12-20T09:33:53;23.10;;;3.60;;
16181;SDS011;8197;51.664;7.114;2023-12-20T09:38:56;30.17;;;5.43;;
16181;SDS011;8197;51.664;7.114;2023-12-20T09:44:00;46.77;;;4.47;;
16181;SDS011;8197;51.664;7.114;2023-12-20T09:49:05;29.40;;;4.30;;
16181;SDS011;8197;51.664;7.114;2023-12-20T09:54:08;35.80;;;4.30;;
16181;SDS011;8197;51.664;7.114;2023-12-20T09:59:13;24.43;;;3.40;;
16181;SDS011;8197;51.664;7.114;2023-12-20T10:04:17;25.83;;;4.57;;
16181;SDS011;8197;51.664;7.114;2023-12-20T10:09:31;30.40;;;3.80;;
16181;SDS011;8197;51.664;7.114;2023-12-20T10:14:35;25.97;;;3.70;;
16181;SDS011;8197;51.664;7.114;2023-12-20T10:19:38;29.63;;;4.00;;
16181;SDS011;8197;51.664;7.114;2023-12-20T10:24:41;30.47;;;3.50;;
16181;SDS011;8197;51.664;7.114;2023-12-20T10:29:45;30.30;;;3.97;;
16181;SDS011;8197;51.664;7.114;2023-12-20T10:34:48;24.33;;;3.87;;
16181;SDS011;8197;51.664;7.114;2023-12-20T10:39:52;40.07;;;3.70;;
16181;SDS011;8197;51.664;7.114;2023-12-20T10:45:01;34.53;;;4.30;;
16181;SDS011;8197;51.664;7.114;2023-12-20T10:50:04;26.77;;;3.60;;
16181;SDS011;8197;51.664;7.114;2023-12-20T10:55:09;28.87;;;3.60;;
16181;SDS011;8197;51.664;7.114;2023-12-20T11:00:14;30.93;;;3.90;;
16181;SDS011;8197;51.664;7.114;2023-12-20T11:05:22;33.87;;;5.90;;
16181;SDS011;8197;51.664;7.114;2023-12-20T11:10:34;29.43;;;4.70;;
16181;SDS011;8197;51.664;7.114;2023-12-20T11:15:44;28.30;;;4.13;;
16181;SDS011;8197;51.664;7.114;2023-12-20T11:20:47;36.50;;;3.97;;
16181;SDS011;8197;51.664;7.114;2023-12-20T11:25:54;33.80;;;4.40;;
16181;SDS011;8197;51.664;7.114;2023-12-20T11:31:01;24.87;;;3.93;;
16181;SDS011;8197;51.664;7.114;2023-12-20T11:36:12;26.80;;;3.97;;
16181;SDS011;8197;51.664;7.114;2023-12-20T11:41:16;36.40;;;5.20;;
16181;SDS011;8197;51.664;7.114;2023-12-20T11:46:20;27.17;;;3.30;;
16181;SDS011;8197;51.664;7.114;2023-12-20T11:51:23;28.50;;;3.90;;
16181;SDS011;8197;51.664;7.114;2023-12-20T11:56:29;27.07;;;3.80;;
16181;SDS011;8197;51.664;7.114;2023-12-20T12:01:34;25.10;;;3.90;;
16181;SDS011;8197;51.664;7.114;2023-12-20T12:06:38;28.13;;;4.30;;
16181;SDS011;8197;51.664;7.114;2023-12-20T12:11:41;31.80;;;4.77;;
16181;SDS011;8197;51.664;7.114;2023-12-20T12:16:45;23.70;;;3.53;;
16181;SDS011;8197;51.664;7.114;2023-12-20T12:21:49;22.20;;;3.50;;
16181;SDS011;8197;51.664;7.114;2023-12-20T12:26:52;36.07;;;4.17;;
16181;SDS011;8197;51.664;7.114;2023-12-20T12:31:56;27.40;;;3.20;;
16181;SDS011;8197;51.664;7.114;2023-12-20T12:36:59;32.13;;;4.87;;
16181;SDS011;8197;51.664;7.114;2023-12-20T12:42:02;30.90;;;4.70;;
16181;SDS011;8197;51.664;7.114;2023-12-20T12:47:07;29.37;;;4.60;;
16181;SDS011;8197;51.664;7.114;2023-12-20T12:52:10;29.40;;;4.23;;
16181;SDS011;8197;51.664;7.114;2023-12-20T12:57:13;24.80;;;3.60;;
16181;SDS011;8197;51.664;7.114;2023-12-20T13:02:18;27.40;;;3.80;;
16181;SDS011;8197;51.664;7.114;2023-12-20T13:07:21;29.17;;;4.33;;
16181;SDS011;8197;51.664;7.114;2023-12-20T13:12:23;23.63;;;3.70;;
16181;SDS011;8197;51.664;7.114;2023-12-20T13:17:28;31.07;;;4.27;;
16181;SDS011;8197;51.664;7.114;2023-12-20T13:22:33;26.10;;;4.40;;
16181;SDS011;8197;51.664;7.114;2023-12-20T13:27:37;27.10;;;3.37;;
16181;SDS011;8197;51.664;7.114;2023-12-20T13:32:41;33.63;;;4.20;;
16181;SDS011;8197;51.664;7.114;2023-12-20T13:37:44;26.67;;;3.57;;
16181;SDS011;8197;51.664;7.114;2023-12-20T13:42:48;27.73;;;4.10;;
16181;SDS011;8197;51.664;7.114;2023-12-20T13:47:52;33.13;;;3.80;;
16181;SDS011;8197;51.664;7.114;2023-12-20T13:52:55;28.50;;;3.73;;
16181;SDS011;8197;51.664;7.114;2023-12-20T13:57:58;24.60;;;3.60;;
16181;SDS011;8197;51.664;7.114;2023-12-20T14:03:03;27.77;;;3.57;;
16181;SDS011;8197;51.664;7.114;2023-12-20T14:08:06;25.67;;;3.80;;
16181;SDS011;8197;51.664;7.114;2023-12-20T14:13:11;29.93;;;4.17;;
16181;SDS011;8197;51.664;7.114;2023-12-20T14:18:17;29.70;;;4.40;;
16181;SDS011;8197;51.664;7.114;2023-12-20T14:23:20;29.30;;;3.20;;
16181;SDS011;8197;51.664;7.114;2023-12-20T14:28:23;30.87;;;4.87;;
16181;SDS011;8197;51.664;7.114;2023-12-20T14:33:28;23.83;;;3.80;;
16181;SDS011;8197;51.664;7.114;2023-12-20T14:38:31;30.57;;;3.70;;
16181;SDS011;8197;51.664;7.114;2023-12-20T14:43:34;20.57;;;3.30;;
16181;SDS011;8197;51.664;7.114;2023-12-20T14:48:38;24.50;;;3.80;;
16181;SDS011;8197;51.664;7.114;2023-12-20T14:53:41;24.83;;;3.67;;
16181;SDS011;8197;51.664;7.114;2023-12-20T14:58:44;21.00;;;3.43;;
16181;SDS011;8197;51.664;7.114;2023-12-20T15:03:50;22.47;;;3.40;;
16181;SDS011;8197;51.664;7.114;2023-12-20T15:08:53;23.33;;;3.90;;
16181;SDS011;8197;51.664;7.114;2023-12-20T15:13:56;27.67;;;4.30;;
16181;SDS011;8197;51.664;7.114;2023-12-20T15:19:02;30.43;;;5.10;;
16181;SDS011;8197;51.664;7.114;2023-12-20T15:24:05;25.00;;;4.00;;
16181;SDS011;8197;51.664;7.114;2023-12-20T15:29:15;25.73;;;4.03;;
16181;SDS011;8197;51.664;7.114;2023-12-20T15:34:19;31.20;;;4.60;;
16181;SDS011;8197;51.664;7.114;2023-12-20T15:39:23;24.00;;;3.77;;
16181;SDS011;8197;51.664;7.114;2023-12-20T15:44:26;26.00;;;4.37;;
16181;SDS011;8197;51.664;7.114;2023-12-20T15:49:30;22.47;;;4.10;;
16181;SDS011;8197;51.664;7.114;2023-12-20T15:54:33;35.27;;;5.00;;
16181;SDS011;8197;51.664;7.114;2023-12-20T15:59:39;27.73;;;4.77;;
16181;SDS011;8197;51.664;7.114;2023-12-20T16:04:43;29.60;;;4.30;;
16181;SDS011;8197;51.664;7.114;2023-12-20T16:09:46;28.30;;;3.60;;
16181;SDS011;8197;51.664;7.114;2023-12-20T16:14:49;39.73;;;5.37;;
16181;SDS011;8197;51.664;7.114;2023-12-20T16:19:53;30.80;;;4.03;;
16181;SDS011;8197;51.664;7.114;2023-12-20T16:24:57;21.87;;;3.90;;
16181;SDS011;8197;51.664;7.114;2023-12-20T16:30:00;26.50;;;5.37;;
16181;SDS011;8197;51.664;7.114;2023-12-20T16:35:05;33.63;;;5.50;;
16181;SDS011;8197;51.664;7.114;2023-12-20T16:40:08;26.10;;;5.23;;
16181;SDS011;8197;51.664;7.114;2023-12-20T16:45:13;24.70;;;3.93;;
16181;SDS011;8197;51.664;7.114;2023-12-20T16:50:17;32.90;;;3.60;;
16181;SDS011;8197;51.664;7.114;2023-12-20T16:55:20;27.00;;;4.20;;
16181;SDS011;8197;51.664;7.114;2023-12-20T17:00:23;26.60;;;4.67;;
16181;SDS011;8197;51.664;7.114;2023-12-20T17:05:29;35.90;;;5.40;;
16181;SDS011;8197;51.664;7.114;2023-12-20T17:10:32;26.77;;;4.83;;
16181;SDS011;8197;51.664;7.114;2023-12-20T17:15:35;28.03;;;5.50;;
16181;SDS011;8197;51.664;7.114;2023-12-20T17:20:40;28.03;;;6.60;;
16181;SDS011;8197;51.664;7.114;2023-12-20T17:25:43;26.67;;;5.13;;
16181;SDS011;8197;51.664;7.114;2023-12-20T17:30:46;26.33;;;5.80;;
16181;SDS011;8197;51.664;7.114;2023-12-20T17:35:51;27.50;;;6.50;;
16181;SDS011;8197;51.664;7.114;2023-12-20T17:40:56;29.43;;;5.53;;
16181;SDS011;8197;51.664;7.114;2023-12-20T17:45:59;24.33;;;6.03;;
16181;SDS011;8197;51.664;7.114;2023-12-20T17:51:04;24.77;;;6.00;;
16181;SDS011;8197;51.664;7.114;2023-12-20T17:56:07;28.47;;;7.63;;
16181;SDS011;8197;51.664;7.114;2023-12-20T18:01:10;27.73;;;6.30;;
16181;SDS011;8197;51.664;7.114;2023-12-20T18:06:17;28.87;;;7.00;;
16181;SDS011;8197;51.664;7.114;2023-12-20T18:11:20;23.47;;;5.50;;
16181;SDS011;8197;51.664;7.114;2023-12-20T18:16:23;33.23;;;6.80;;
16181;SDS011;8197;51.664;7.114;2023-12-20T18:21:27;26.13;;;5.77;;
16181;SDS011;8197;51.664;7.114;2023-12-20T18:26:30;25.80;;;6.40;;
16181;SDS011;8197;51.664;7.114;2023-12-20T18:31:36;27.30;;;7.20;;
16181;SDS011;8197;51.664;7.114;2023-12-20T18:36:41;22.97;;;5.67;;
16181;SDS011;8197;51.664;7.114;2023-12-20T18:41:44;28.17;;;7.80;;
16181;SDS011;8197;51.664;7.114;2023-12-20T18:46:49;26.47;;;5.87;;
16181;SDS011;8197;51.664;7.114;2023-12-20T18:51:53;33.13;;;7.67;;
16181;SDS011;8197;51.664;7.114;2023-12-20T18:56:56;29.37;;;8.67;;
16181;SDS011;8197;51.664;7.114;2023-12-20T19:02:00;27.33;;;7.87;;
16181;SDS011;8197;51.664;7.114;2023-12-20T19:07:04;27.23;;;7.93;;
16181;SDS011;8197;51.664;7.114;2023-12-20T19:12:07;27.27;;;7.77;;
16181;SDS011;8197;51.664;7.114;2023-12-20T19:17:10;31.83;;;7.60;;
16181;SDS011;8197;51.664;7.114;2023-12-20T19:22:14;26.77;;;6.77;;
16181;SDS011;8197;51.664;7.114;2023-12-20T19:27:17;24.63;;;5.87;;
16181;SDS011;8197;51.664;7.114;2023-12-20T19:32:20;27.30;;;7.07;;
16181;SDS011;8197;51.664;7.114;2023-12-20T19:37:24;24.10;;;6.70;;
16181;SDS011;8197;51.664;7.114;2023-12-20T19:42:27;26.67;;;6.83;;
16181;SDS011;8197;51.664;7.114;2023-12-20T19:47:32;25.57;;;5.80;;
16181;SDS011;8197;51.664;7.114;2023-12-20T19:52:36;23.00;;;6.60;;
16181;SDS011;8197;51.664;7.114;2023-12-20T19:57:39;23.70;;;5.00;;
16181;SDS011;8197;51.664;7.114;2023-12-20T20:02:42;26.93;;;6.40;;
16181;SDS011;8197;51.664;7.114;2023-12-20T20:07:46;24.57;;;6.07;;
16181;SDS011;8197;51.664;7.114;2023-12-20T20:12:50;22.40;;;6.10;;
16181;SDS011;8197;51.664;7.114;2023-12-20T20:17:52;25.90;;;6.13;;
16181;SDS011;8197;51.664;7.114;2023-12-20T20:22:57;23.67;;;6.23;;
16181;SDS011;8197;51.664;7.114;2023-12-20T20:28:00;20.70;;;6.03;;
16181;SDS011;8197;51.664;7.114;2023-12-20T20:33:03;25.03;;;6.63;;
16181;SDS011;8197;51.664;7.114;2023-12-20T20:38:07;24.50;;;6.83;;
16181;SDS011;8197;51.664;7.114;2023-12-20T20:43:10;21.43;;;6.60;;
16181;SDS011;8197;51.664;7.114;2023-12-20T20:48:13;22.20;;;5.43;;
16181;SDS011;8197;51.664;7.114;2023-12-20T20:53:31;21.03;;;6.20;;
16181;SDS011;8197;51.664;7.114;2023-12-20T20:58:34;22.97;;;6.47;;
16181;SDS011;8197;51.664;7.114;2023-12-20T21:03:38;22.70;;;5.80;;
16181;SDS011;8197;51.664;7.114;2023-12-20T21:08:42;20.67;;;6.07;;
16181;SDS011;8197;51.664;7.114;2023-12-20T21:13:45;20.30;;;5.70;;
16181;SDS011;8197;51.664;7.114;2023-12-20T21:18:49;23.23;;;6.20;;
16181;SDS011;8197;51.664;7.114;2023-12-20T21:23:54;19.93;;;6.00;;
16181;SDS011;8197;51.664;7.114;2023-12-20T21:28:57;20.77;;;5.87;;
16181;SDS011;8197;51.664;7.114;2023-12-20T21:34:00;21.73;;;5.30;;
16181;SDS011;8197;51.664;7.114;2023-12-20T21:39:04;22.43;;;5.53;;
16181;SDS011;8197;51.664;7.114;2023-12-20T21:44:10;20.10;;;5.50;;
16181;SDS011;8197;51.664;7.114;2023-12-20T21:49:13;21.97;;;5.73;;
16181;SDS011;8197;51.664;7.114;2023-12-20T21:54:17;21.20;;;5.00;;
16181;SDS011;8197;51.664;7.114;2023-12-20T21:59:21;18.37;;;5.07;;
16181;SDS011;8197;51.664;7.114;2023-12-20T22:04:26;20.13;;;4.63;;
16181;SDS011;8197;51.664;7.114;2023-12-20T22:09:30;19.70;;;5.00;;
16181;SDS011;8197;51.664;7.114;2023-12-20T22:14:33;22.50;;;5.00;;
16181;SDS011;8197;51.664;7.114;2023-12-20T22:19:36;21.10;;;4.70;;
16181;SDS011;8197;51.664;7.114;2023-12-20T22:24:40;21.80;;;4.93;;
16181;SDS011;8197;51.664;7.114;2023-12-20T22:29:44;23.27;;;5.60;;
16181;SDS011;8197;51.664;7.114;2023-12-20T22:34:47;18.10;;;4.90;;
16181;SDS011;8197;51.664;7.114;2023-12-20T22:39:52;20.67;;;4.70;;
16181;SDS011;8197;51.664;7.114;2023-12-20T22:44:55;18.90;;;4.20;;
16181;SDS011;8197;51.664;7.114;2023-12-20T22:49:58;21.20;;;5.00;;
16181;SDS011;8197;51.664;7.114;2023-12-20T22:55:03;20.70;;;5.27;;
16181;SDS011;8197;51.664;7.114;2023-12-20T23:00:10;18.57;;;4.80;;
16181;SDS011;8197;51.664;7.114;2023-12-20T23:05:18;17.20;;;4.40;;
16181;SDS011;8197;51.664;7.114;2023-12-20T23:10:22;17.70;;;4.40;;
16181;SDS011;8197;51.664;7.114;2023-12-20T23:15:31;18.20;;;4.97;;
16181;SDS011;8197;51.664;7.114;2023-12-20T23:20:34;19.33;;;4.30;;
16181;SDS011;8197;51.664;7.114;2023-12-20T23:25:38;19.70;;;3.90;;
16181;SDS011;8197;51.664;7.114;2023-12-20T23:30:42;20.40;;;4.13;;
16181;SDS011;8197;51.664;7.114;2023-12-20T23:35:45;17.00;;;3.73;;
16181;SDS011;8197;51.664;7.114;2023-12-20T23:40:50;17.37;;;4.20;;
16181;SDS011;8197;51.664;7.114;2023-12-20T23:45:53;18.60;;;3.40;;
16181;SDS011;8197;51.664;7.114;2023-12-20T23:50:56;19.70;;;3.73;;
16181;SDS011;8197;51.664;7.114;2023-12-20T23:56:00;15.07;;;3.00;;
